Time;durP1;ratioP1;P1;durP2;ratioP2;P2;SDS_P1;SDS_P2;PMS_P1;PMS_P2;Temp;Humidity;BMP_temperature;BMP_pressure;BME280_temperature;BME280_humidity;BME280_pressure;Samples;Min_cycle;Max_cycle;Signal;HPM_P1;HPM_P2
2022/02/06 00:00:31;;;;;;;26.30;15.85;;;;;;;-2.10;100.00;100699.27;1774470;80;21145;-79
2022/02/06 00:02:59;;;;;;;23.45;15.53;;;;;;;-2.11;100.00;100701.41;1774258;80;21103;-79
2022/02/06 00:05:26;;;;;;;27.25;16.60;;;;;;;-2.09;100.00;100693.30;1692966;83;21065;-80
2022/02/06 00:07:53;;;;;;;25.00;16.12;;;;;;;-2.08;100.00;100696.25;1707364;83;21074;-79
2022/02/06 00:10:21;;;;;;;28.85;16.37;;;;;;;-2.10;100.00;100686.09;1708081;84;21539;-79
2022/02/06 00:12:49;;;;;;;24.55;15.15;;;;;;;-2.08;100.00;100689.88;1707735;83;21615;-78
2022/02/06 00:15:18;;;;;;;24.72;15.65;;;;;;;-2.07;100.00;100686.45;1707552;83;21049;-78
2022/02/06 00:17:47;;;;;;;22.55;14.87;;;;;;;-2.07;100.00;100681.35;1707363;84;21126;-79
2022/02/06 00:20:15;;;;;;;25.55;15.72;;;;;;;-2.08;100.00;100679.22;1707877;83;21071;-79
2022/02/06 00:22:47;;;;;;;22.70;15.15;;;;;;;-2.06;100.00;100681.31;1707810;83;21117;-79
2022/02/06 00:30:37;;;;;;;23.65;16.20;;;;;;;-2.10;100.00;100672.47;1707925;83;21101;-80
2022/02/06 00:33:08;;;;;;;23.70;15.93;;;;;;;-2.12;100.00;100675.48;1707250;83;21031;-81
2022/02/06 00:38:23;;;;;;;24.92;15.98;;;;;;;-2.08;100.00;100668.19;1707427;83;21567;-79
2022/02/06 00:43:17;;;;;;;23.35;16.07;;;;;;;-2.10;100.00;100663.13;1707749;83;21110;-80
2022/02/06 00:45:45;;;;;;;39.67;24.70;;;;;;;-2.11;100.00;100656.75;1708023;83;21160;-80
2022/02/06 00:48:13;;;;;;;41.42;29.00;;;;;;;-2.12;100.00;100659.76;1707524;83;21063;-80
2022/02/06 00:50:46;;;;;;;47.98;31.75;;;;;;;-2.17;100.00;100655.20;1707891;84;21099;-79
2022/02/06 00:53:16;;;;;;;45.30;30.30;;;;;;;-2.17;100.00;100650.52;1703861;84;21054;-79
2022/02/06 00:55:41;;;;;;;41.63;29.43;;;;;;;-2.15;100.00;100644.95;1704701;84;21563;-80
2022/02/06 00:58:08;;;;;;;31.05;19.98;;;;;;;-2.12;100.00;100648.27;1684233;83;21117;-80
2022/02/06 01:00:35;;;;;;;32.35;19.52;;;;;;;-2.12;100.00;100639.77;1707797;83;21054;-80
2022/02/06 01:03:02;;;;;;;31.73;22.35;;;;;;;-2.12;100.00;100643.17;1708154;83;21872;-79
2022/02/06 01:05:30;;;;;;;29.98;19.75;;;;;;;-2.12;100.00;100641.89;1728593;81;21057;-80
2022/02/06 01:07:57;;;;;;;32.17;22.95;;;;;;;-2.15;100.00;100644.95;1744412;82;21050;-81
2022/02/06 01:10:24;;;;;;;34.27;21.75;;;;;;;-2.15;100.00;100643.23;1719259;81;22057;-82
2022/02/06 01:12:57;;;;;;;35.17;23.62;;;;;;;-2.13;100.00;100635.11;1719188;82;21984;-81
2022/02/06 01:15:25;;;;;;;35.15;23.85;;;;;;;-2.10;100.00;100629.95;1724245;82;21214;-80
2022/02/06 01:17:58;;;;;;;29.37;20.55;;;;;;;-2.11;100.00;100627.41;1723083;82;21053;-79
2022/02/06 01:20:31;;;;;;;37.10;25.30;;;;;;;-2.11;100.00;100629.97;1715779;81;21007;-80
2022/02/06 01:23:01;;;;;;;32.45;21.68;;;;;;;-2.12;100.00;100632.11;1689731;82;20997;-80
2022/02/06 01:25:34;;;;;;;30.55;20.90;;;;;;;-2.11;100.00;100632.52;1723302;81;21022;-81
2022/02/06 01:28:00;;;;;;;26.93;17.85;;;;;;;-2.13;100.00;100630.00;1723931;83;21479;-82
2022/02/06 01:30:33;;;;;;;30.85;22.52;;;;;;;-2.14;100.00;100635.16;1723295;81;21054;-80
2022/02/06 01:33:01;;;;;;;28.47;18.55;;;;;;;-2.14;100.00;100629.60;1723863;81;21088;-80
2022/02/06 01:35:30;;;;;;;23.95;16.57;;;;;;;-2.12;100.00;100630.41;1713810;83;21591;-81
2022/02/06 01:38:09;;;;;;;25.32;16.20;;;;;;;-2.10;100.00;100625.27;1713293;83;21121;-80
2022/02/06 01:43:11;;;;;;;22.32;15.70;;;;;;;-2.08;100.00;100614.59;1712772;83;21038;-82
2022/02/06 02:20:55;;;;;;;41.02;25.82;;;;;;;-1.95;100.00;100615.98;1772922;80;21168;-81
2022/02/06 02:31:46;;;;;;;47.75;25.97;;;;;;;-1.88;100.00;100618.42;1771960;80;21101;-81
2022/02/06 02:47:25;;;;;;;38.60;24.30;;;;;;;-1.95;100.00;100608.33;1714589;82;21590;-82
2022/02/06 02:49:57;;;;;;;37.63;23.07;;;;;;;-1.97;100.00;100610.09;1714040;83;21054;-81
2022/02/06 02:57:42;;;;;;;37.10;23.67;;;;;;;-1.98;100.00;100602.03;1679708;83;21471;-80
2022/02/06 03:00:18;;;;;;;39.38;25.57;;;;;;;-1.99;100.00;100605.88;1719381;82;21815;-81
2022/02/06 03:02:31;;;;;;;41.20;25.68;;;;;;;-2.02;100.00;100605.52;1718509;82;21081;-81
2022/02/06 03:05:00;;;;;;;40.90;25.15;;;;;;;-2.05;100.00;100601.78;1715880;82;21196;-80
2022/02/06 03:07:29;;;;;;;43.00;27.10;;;;;;;-2.04;100.00;100591.12;1711234;83;21045;-80
2022/02/06 03:09:56;;;;;;;42.80;27.75;;;;;;;-2.02;100.00;100587.66;1707332;83;21205;-81
2022/02/06 03:12:26;;;;;;;44.03;27.13;;;;;;;-1.97;100.00;100585.85;1711045;83;21804;-79
2022/02/06 03:15:01;;;;;;;44.33;26.17;;;;;;;-1.95;100.00;100590.45;1710786;83;21006;-79
2022/02/06 03:17:33;;;;;;;37.75;24.40;;;;;;;-1.94;100.00;100594.69;1710564;82;21081;-80
2022/02/06 03:19:55;;;;;;;40.00;23.98;;;;;;;-1.95;100.00;100594.29;1694507;82;21059;-80
2022/02/06 03:22:21;;;;;;;38.17;23.95;;;;;;;-1.95;100.00;100596.02;1678446;84;21030;-80
2022/02/06 03:24:55;;;;;;;41.58;25.15;;;;;;;-1.96;100.00;100597.71;1681575;83;21132;-82
2022/02/06 03:27:21;;;;;;;44.67;25.65;;;;;;;-1.94;100.00;100602.80;1681831;84;21081;-81
2022/02/06 03:29:49;;;;;;;42.65;26.17;;;;;;;-1.96;100.00;100604.09;1656762;84;21086;-81
2022/02/06 03:32:16;;;;;;;47.38;27.25;;;;;;;-1.99;100.00;100606.73;1682361;83;21585;-80
2022/02/06 03:34:43;;;;;;;37.88;25.02;;;;;;;-1.99;100.00;100606.73;1682419;84;21535;-80
2022/02/06 03:37:11;;;;;;;42.70;25.32;;;;;;;-1.97;100.00;100605.41;1657776;84;21633;-81
2022/02/06 03:39:39;;;;;;;41.48;24.72;;;;;;;-1.94;100.00;100607.91;1682431;84;21044;-81
2022/02/06 03:42:11;;;;;;;40.28;25.12;;;;;;;-1.91;100.00;100611.23;1682643;84;21026;-81
2022/02/06 03:44:44;;;;;;;45.03;27.15;;;;;;;-1.88;100.00;100614.59;1678742;84;21049;-80
2022/02/06 03:47:15;;;;;;;39.53;24.25;;;;;;;-1.86;100.00;100617.50;1678730;84;21118;-80
2022/02/06 03:50:11;;;;;;;40.70;25.02;;;;;;;-1.83;100.00;100612.30;1677987;83;21152;-80
2022/02/06 03:52:12;;;;;;;40.58;24.65;;;;;;;-1.78;100.00;100618.16;1654467;84;21664;-80
2022/02/06 03:54:39;;;;;;;38.53;23.05;;;;;;;-1.75;100.00;100624.91;1682383;84;21115;-80
2022/02/06 03:57:07;;;;;;;40.08;24.40;;;;;;;-1.72;100.00;100622.25;1652887;85;21016;-80
2022/02/06 03:59:35;;;;;;;43.55;26.00;;;;;;;-1.68;100.00;100622.59;1657557;85;21103;-80
2022/02/06 04:02:05;;;;;;;42.15;24.82;;;;;;;-1.67;100.00;100620.45;1658069;85;21165;-80
2022/02/06 04:04:32;;;;;;;41.40;25.30;;;;;;;-1.68;100.00;100627.70;1656607;85;21594;-80
2022/02/06 04:07:05;;;;;;;39.75;24.60;;;;;;;-1.69;100.00;100627.75;1690762;84;21019;-80
2022/02/06 04:09:34;;;;;;;39.03;24.20;;;;;;;-1.69;100.00;100630.31;1726834;81;21546;-80
2022/02/06 04:11:57;;;;;;;38.35;23.57;;;;;;;-1.69;100.00;100629.86;1731389;81;21063;-80
2022/02/06 04:14:28;;;;;;;39.50;24.00;;;;;;;-1.69;100.00;100631.59;1734839;81;21093;-81
2022/02/06 04:17:01;;;;;;;39.98;24.75;;;;;;;-1.73;100.00;100635.92;1731690;81;20968;-80
2022/02/06 04:19:26;;;;;;;38.63;23.62;;;;;;;-1.75;100.00;100630.01;1731369;81;21123;-82
2022/02/06 04:21:54;;;;;;;49.23;26.77;;;;;;;-1.77;100.00;100630.47;1735293;81;21075;-80
2022/02/06 04:24:24;;;;;;;32.48;22.20;;;;;;;-1.78;100.00;100633.48;1734873;81;21071;-81
2022/02/06 04:26:53;;;;;;;39.53;23.67;;;;;;;-1.77;100.00;100638.13;1735632;81;22218;-81
2022/02/06 04:29:21;;;;;;;37.93;23.00;;;;;;;-1.82;100.00;100635.69;1734552;82;21075;-81
2022/02/06 04:31:50;;;;;;;39.90;24.98;;;;;;;-1.82;100.00;100635.69;1734667;81;21094;-81
2022/02/06 04:34:23;;;;;;;39.20;24.72;;;;;;;-1.83;100.00;100636.55;1734408;82;21584;-81
2022/02/06 04:55:46;;;;;;;36.33;23.07;;;;;;;-2.19;100.00;100661.19;1735049;81;21071;-80
2022/02/06 05:40:15;;;;;;;34.90;22.65;;;;;;;-2.00;100.00;100688.00;1851446;77;21981;-82
2022/02/06 05:42:44;;;;;;;35.25;22.30;;;;;;;-2.14;100.00;100690.02;1823534;78;20990;-82
2022/02/06 05:45:13;;;;;;;31.15;20.70;;;;;;;-2.30;100.00;100691.61;1776031;78;21791;-81
2022/02/06 05:47:40;;;;;;;31.20;20.90;;;;;;;-2.41;100.00;100690.97;1821005;78;21143;-82
2022/02/06 05:50:08;;;;;;;33.33;19.70;;;;;;;-2.49;100.00;100689.02;1803315;78;21053;-82
2022/02/06 05:52:35;;;;;;;27.87;18.37;;;;;;;-2.56;100.00;100687.86;1784773;80;21447;-82
2022/02/06 05:55:03;;;;;;;29.77;18.60;;;;;;;-2.64;100.00;100687.17;1785127;80;21943;-83
2022/02/06 05:57:31;;;;;;;29.90;18.92;;;;;;;-2.70;100.00;100691.12;1784575;80;21782;-83
2022/02/06 05:59:59;;;;;;;26.75;18.07;;;;;;;-2.78;100.00;100692.97;1813827;78;21115;-83
2022/02/06 06:02:27;;;;;;;37.50;20.52;;;;;;;-2.87;100.00;100694.81;1784266;78;21710;-83
2022/02/06 06:04:56;;;;;;;29.85;19.27;;;;;;;-2.90;100.00;100698.68;1789077;78;21105;-83
2022/02/06 06:07:24;;;;;;;35.25;20.15;;;;;;;-2.94;100.00;100702.17;1779219;80;21057;-82
2022/02/06 06:09:52;;;;;;;34.03;20.20;;;;;;;-2.97;100.00;100699.66;1779333;79;22012;-82
2022/02/06 06:12:19;;;;;;;36.15;20.08;;;;;;;-2.98;100.00;100697.98;1779349;80;20970;-83
2022/02/06 06:14:47;;;;;;;32.48;19.73;;;;;;;-2.97;100.00;100698.39;1780073;79;21050;-80
2022/02/06 06:17:15;;;;;;;33.33;19.30;;;;;;;-2.92;100.00;100700.41;1779378;80;21089;-82
2022/02/06 06:19:45;;;;;;;29.60;19.82;;;;;;;-2.85;100.00;100701.15;1779546;80;21605;-82
2022/02/06 06:22:13;;;;;;;39.20;20.12;;;;;;;-2.77;100.00;100708.22;1779457;80;21049;-82
2022/02/06 06:24:45;;;;;;;28.80;18.12;;;;;;;-2.70;100.00;100714.06;1779657;80;21030;-81
2022/02/06 06:27:11;;;;;;;32.00;20.32;;;;;;;-2.62;100.00;100712.63;1779622;80;20983;-81
2022/02/06 06:29:40;;;;;;;32.17;19.82;;;;;;;-2.54;100.00;100712.91;1779926;79;21049;-83
2022/02/06 06:32:08;;;;;;;29.77;18.50;;;;;;;-2.46;100.00;100713.19;1747956;80;21865;-84
2022/02/06 06:34:35;;;;;;;31.42;20.65;;;;;;;-2.40;100.00;100713.06;1780216;79;21121;-84
2022/02/06 06:37:02;;;;;;;32.17;20.12;;;;;;;-2.34;100.00;100718.03;1779687;79;21085;-83
2022/02/06 06:39:42;;;;;;;35.38;19.75;;;;;;;-2.26;100.00;100717.89;1748917;80;21626;-84
2022/02/06 06:42:08;;;;;;;38.88;23.20;;;;;;;-2.20;100.00;100719.48;1779151;80;21571;-82
2022/02/06 06:44:37;;;;;;;32.13;19.67;;;;;;;-2.11;100.00;100723.10;1787005;78;21016;-82
2022/02/06 06:47:18;;;;;;;31.17;20.02;;;;;;;-2.01;100.00;100727.60;1816144;78;21137;-82
2022/02/06 06:49:45;;;;;;;30.12;19.75;;;;;;;-1.95;100.00;100727.46;1822749;78;20993;-84
2022/02/06 06:52:12;;;;;;;30.45;20.15;;;;;;;-1.87;100.00;100732.39;1822836;78;21014;-83
2022/02/06 06:54:43;;;;;;;34.27;20.80;;;;;;;-1.79;100.00;100733.06;1822918;78;21032;-82
2022/02/06 07:02:28;;;;;;;28.62;19.17;;;;;;;-1.51;100.00;100724.80;1790417;79;21097;-82
2022/02/06 07:04:52;;;;;;;29.90;20.17;;;;;;;-1.39;100.00;100731.33;1785832;80;21050;-82
2022/02/06 07:07:20;;;;;;;28.55;18.17;;;;;;;-1.28;100.00;100730.20;1790516;78;21085;-81
2022/02/06 07:09:47;;;;;;;29.02;19.95;;;;;;;-1.19;100.00;100727.84;1790220;79;21551;-82
2022/02/06 07:12:14;;;;;;;26.25;17.50;;;;;;;-1.11;100.00;100724.67;1790395;79;21136;-83
2022/02/06 07:14:45;;;;;;;27.37;18.00;;;;;;;-1.02;100.00;100723.62;1790096;79;21080;-81
2022/02/06 07:17:14;;;;;;;26.30;18.73;;;;;;;-1.00;100.00;100728.68;1790247;78;21064;-82
2022/02/06 07:19:43;;;;;;;28.00;18.10;;;;;;;-0.99;100.00;100733.74;1792182;78;21513;-82
2022/02/06 07:22:16;;;;;;;29.52;19.75;;;;;;;-1.02;100.00;100733.84;1819890;78;27023;-83
2022/02/06 07:24:46;;;;;;;30.25;18.87;;;;;;;-1.03;100.00;100725.77;1820016;78;21156;-81
2022/02/06 07:27:23;;;;;;;26.12;17.70;;;;;;;-1.04;100.00;100733.03;1783197;79;20998;-82
2022/02/06 07:29:48;;;;;;;26.82;17.82;;;;;;;-1.05;100.00;100733.08;1786600;78;20946;-82
2022/02/06 07:32:15;;;;;;;27.02;18.52;;;;;;;-1.02;100.00;100724.89;1794353;78;21052;-81
2022/02/06 07:34:43;;;;;;;27.52;17.90;;;;;;;-0.94;100.00;100718.29;1789724;80;21526;-82
2022/02/06 07:37:10;;;;;;;24.77;16.85;;;;;;;-0.85;100.00;100715.50;1795991;78;21996;-82
2022/02/06 07:39:38;;;;;;;31.55;19.62;;;;;;;-0.73;100.00;100713.06;1807335;78;21489;-81
2022/02/06 07:42:09;;;;;;;26.45;16.62;;;;;;;-0.65;100.00;100713.70;1774308;80;21809;-84
2022/02/06 07:44:38;;;;;;;27.17;17.17;;;;;;;-0.59;100.00;100728.05;1790700;80;21493;-84
2022/02/06 07:47:19;;;;;;;26.65;15.58;;;;;;;-0.59;100.00;100725.91;1791393;78;22207;-83
2022/02/06 07:49:47;;;;;;;30.45;18.32;;;;;;;-0.58;100.00;100728.87;1781098;79;21819;-83
2022/02/06 07:52:19;;;;;;;24.87;16.57;;;;;;;-0.57;100.00;100726.30;1790144;78;21526;-82
2022/02/06 07:54:46;;;;;;;30.30;17.48;;;;;;;-0.51;100.00;100731.66;1792301;78;21062;-84
2022/02/06 07:57:14;;;;;;;25.50;16.37;;;;;;;-0.40;100.00;100723.72;1790718;78;21533;-83
2022/02/06 07:59:42;;;;;;;25.72;15.93;;;;;;;-0.26;100.00;100734.41;1777722;79;21521;-84
2022/02/06 08:02:09;;;;;;;21.87;16.02;;;;;;;-0.12;100.00;100736.55;1751543;79;21171;-84
2022/02/06 08:04:39;;;;;;;24.52;16.30;;;;;;;0.01;100.00;100734.93;1777962;79;21288;-84
2022/02/06 08:07:09;;;;;;;;;;;;;;;0.11;100.00;100730.77;1780711;78;21620;-83
2022/02/06 08:12:31;;;;;;;24.63;15.65;;;;;;;0.29;100.00;100740.89;1793292;78;21502;-84
2022/02/06 08:15:03;;;;;;;26.60;16.17;;;;;;;0.38;100.00;100742.78;1792695;78;21147;-85
2022/02/06 08:17:39;;;;;;;22.77;16.55;;;;;;;0.46;100.00;100739.55;1802165;78;21064;-83
2022/02/06 08:20:15;;;;;;;24.72;15.60;;;;;;;0.51;100.00;100741.54;1826000;78;21573;-84
2022/02/06 08:22:43;;;;;;;22.40;14.98;;;;;;;0.56;100.00;100740.95;1810878;78;21010;-84
2022/02/06 08:25:15;;;;;;;28.38;15.45;;;;;;;0.62;100.00;100739.92;1793075;78;21092;-84
2022/02/06 08:27:44;;;;;;;20.62;14.38;;;;;;;0.66;100.00;100744.50;1788028;78;21132;-84
2022/02/06 08:30:14;;;;;;;24.87;15.50;;;;;;;0.68;100.00;100746.58;1777835;79;21067;-83
2022/02/06 08:32:45;;;;;;;22.75;15.20;;;;;;;0.70;100.00;100749.91;1774287;79;21487;-83
2022/02/06 08:35:13;;;;;;;21.25;14.00;;;;;;;0.73;100.00;100748.09;1777274;78;21077;-83
2022/02/06 08:37:42;;;;;;;20.45;14.93;;;;;;;0.78;100.00;100751.79;1789090;78;21048;-84
2022/02/06 08:40:15;;;;;;;25.10;14.20;;;;;;;0.81;100.00;100751.70;1792164;78;21164;-83
2022/02/06 08:42:44;;;;;;;23.12;15.28;;;;;;;0.81;100.00;100750.42;1786543;78;21075;-84
2022/02/06 08:45:12;;;;;;;20.95;14.33;;;;;;;0.82;100.00;100753.38;1789030;78;21099;-84
2022/02/06 08:47:42;;;;;;;21.55;14.23;;;;;;;0.86;100.00;100756.69;1789466;78;21572;-84
2022/02/06 08:50:11;;;;;;;24.43;14.95;;;;;;;0.87;100.00;100758.36;1762401;80;20996;-84
2022/02/06 08:52:39;;;;;;;21.65;13.18;;;;;;;0.90;100.00;100756.96;1789834;79;21166;-85
2022/02/06 08:55:11;;;;;;;22.30;13.80;;;;;;;0.94;100.00;100760.66;1789452;79;21510;-84
2022/02/06 08:57:47;;;;;;;;;;;;;;;0.99;100.00;100760.52;1789872;78;21016;-85
2022/02/06 09:00:12;;;;;;;20.08;12.78;;;;;;;1.06;100.00;100759.42;1780294;79;20226;-85
2022/02/06 09:02:39;;;;;;;20.27;13.80;;;;;;;1.17;100.00;100753.10;1789824;78;21076;-85
2022/02/06 09:05:07;;;;;;;21.55;13.75;;;;;;;1.25;100.00;100751.94;1779287;78;21904;-85
2022/02/06 09:07:44;;;;;;;18.52;12.37;;;;;;;1.31;100.00;100752.64;1785097;78;21079;-85
2022/02/06 09:10:14;;;;;;;18.75;12.45;;;;;;;1.32;100.00;100753.04;1780772;78;21039;-86
2022/02/06 09:12:50;;;;;;;22.07;14.25;;;;;;;1.27;100.00;100754.48;1791292;78;21089;-85
2022/02/06 09:15:14;;;;;;;20.43;13.85;;;;;;;1.25;100.00;100748.09;1726310;78;21707;-86
2022/02/06 09:17:44;;;;;;;19.98;13.38;;;;;;;1.28;100.00;100748.89;1746580;78;21102;-87
2022/02/06 09:20:13;;;;;;;20.37;13.08;;;;;;;1.32;100.00;100750.47;1656476;83;21069;-88
2022/02/06 09:22:43;;;;;;;23.73;12.68;;;;;;;1.35;100.00;100760.19;1756054;80;21105;-88
2022/02/06 09:25:12;;;;;;;19.27;12.85;;;;;;;1.35;100.00;100757.62;1720470;81;21044;-88
2022/02/06 09:27:43;;;;;;;18.07;13.45;;;;;;;1.38;100.00;100756.67;1693849;82;21069;-90
2022/02/06 09:30:17;;;;;;;19.82;11.83;;;;;;;1.43;100.00;100753.95;1726773;82;21223;-89
2022/02/06 09:35:12;;;;;;;17.75;13.60;;;;;;;1.41;100.00;100752.70;1709743;83;21089;-87
2022/02/06 09:37:41;;;;;;;20.70;12.73;;;;;;;1.43;100.00;100749.64;1723013;82;21038;-88
2022/02/06 09:40:13;;;;;;;18.95;13.10;;;;;;;1.50;100.00;100749.81;1704852;81;21551;-88
2022/02/06 09:42:45;;;;;;;20.20;13.55;;;;;;;1.56;100.00;100752.62;1706937;81;21249;-87
2022/02/06 09:45:12;;;;;;;19.90;13.40;;;;;;;1.61;100.00;100755.02;1741018;81;21530;-87
2022/02/06 09:47:43;;;;;;;21.80;12.33;;;;;;;1.61;100.00;100753.28;1707122;82;21061;-85
2022/02/06 09:50:11;;;;;;;20.27;13.25;;;;;;;1.60;100.00;100749.49;1756218;81;21124;-85
2022/02/06 09:52:41;;;;;;;20.02;12.55;;;;;;;1.58;100.00;100752.95;1699681;83;21061;-85
2022/02/06 09:55:15;;;;;;;19.87;11.27;;;;;;;1.58;100.00;100750.84;1704020;82;21027;-86
2022/02/06 09:57:52;;;;;;;18.50;12.25;;;;;;;1.58;100.00;100752.95;1738729;81;21093;-82
2022/02/06 10:00:11;;;;;;;20.82;15.15;;;;;;;1.57;100.00;100749.98;1740859;81;21101;-82
2022/02/06 10:02:44;;;;;;;18.60;13.28;;;;;;;1.57;100.00;100746.59;1713560;81;21029;-80
2022/02/06 10:05:10;;;;;;;18.52;12.80;;;;;;;1.58;100.00;100754.23;1709032;82;21148;-80
2022/02/06 10:07:46;;;;;;;16.45;12.18;;;;;;;1.62;100.00;100749.00;1711533;81;21239;-79
2022/02/06 10:10:15;;;;;;;17.52;11.83;;;;;;;1.66;100.00;100750.55;1712609;81;21394;-82
2022/02/06 10:12:45;;;;;;;21.42;13.00;;;;;;;1.65;100.00;100748.44;1738749;81;21057;-80
2022/02/06 10:15:17;;;;;;;20.50;13.20;;;;;;;1.64;100.00;100746.77;1715089;81;21543;-78
2022/02/06 10:17:45;;;;;;;22.48;11.85;;;;;;;1.63;100.00;100750.22;1736938;81;21061;-80
2022/02/06 10:20:24;;;;;;;17.32;12.30;;;;;;;1.60;100.00;100752.06;1753595;81;21934;-78
2022/02/06 10:22:56;;;;;;;18.98;12.45;;;;;;;1.60;100.00;100748.20;1705628;81;21041;-77
2022/02/06 10:25:20;;;;;;;19.15;11.68;;;;;;;1.62;100.00;100744.69;1713372;83;21057;-79
2022/02/06 10:28:31;;;;;;;18.37;11.55;;;;;;;1.65;100.00;100747.59;1736713;81;21037;-77
2022/02/06 10:30:42;;;;;;;18.65;11.78;;;;;;;1.67;100.00;100742.81;1737828;81;21512;-78
2022/02/06 10:33:17;;;;;;;21.60;13.18;;;;;;;1.70;100.00;100747.82;1748075;81;21127;-77
2022/02/06 10:35:48;;;;;;;16.70;11.48;;;;;;;1.72;100.00;100747.79;1757918;81;21096;-78
2022/02/06 10:38:22;;;;;;;20.80;13.45;;;;;;;1.71;100.00;100739.69;1718411;81;21598;-78
2022/02/06 10:41:16;;;;;;;17.32;11.50;;;;;;;1.72;100.00;100747.79;1746820;81;21081;-77
2022/02/06 10:44:06;;;;;;;17.52;10.85;;;;;;;1.72;100.00;100742.20;1740470;81;21535;-76
2022/02/06 10:46:38;;;;;;;20.27;11.90;;;;;;;1.74;100.00;100751.12;1732779;82;21172;-76
2022/02/06 10:49:12;;;;;;;17.70;10.55;;;;;;;1.72;100.00;100754.20;1730697;81;21010;-77
2022/02/06 10:51:54;;;;;;;17.70;12.00;;;;;;;1.73;100.00;100741.73;1734591;82;21506;-76
2022/02/06 10:54:35;;;;;;;15.65;11.35;;;;;;;1.75;100.00;100750.69;1701449;82;21577;-77
2022/02/06 10:57:12;;;;;;;15.45;11.28;;;;;;;1.72;100.00;100753.75;1733412;82;21013;-76
2022/02/06 10:59:53;;;;;;;15.80;9.93;;;;;;;1.69;100.00;100742.75;1736934;81;22175;-79
2022/02/06 11:02:30;;;;;;;17.70;11.30;;;;;;;1.71;100.00;100755.09;1702815;82;21045;-80
2022/02/06 11:05:19;;;;;;;14.40;9.33;;;;;;;1.71;100.00;100755.09;1732980;81;21601;-77
2022/02/06 11:07:54;;;;;;;18.10;11.10;;;;;;;1.72;100.00;100748.61;1704205;81;20998;-76
2022/02/06 11:10:26;;;;;;;18.52;10.95;;;;;;;1.71;100.00;100749.96;1725889;81;21038;-78
2022/02/06 11:12:56;;;;;;;17.07;12.55;;;;;;;1.70;100.00;100741.86;1707659;82;21085;-77
2022/02/06 11:15:38;;;;;;;20.27;13.35;;;;;;;1.69;100.00;100750.45;1734679;82;21044;-76
2022/02/06 11:18:12;;;;;;;;;;;;;;;1.67;100.00;100750.52;1741478;81;21618;-79
2022/02/06 11:20:53;;;;;;;17.57;10.40;;;;;;;1.66;100.00;100741.56;1744383;82;20165;-76
2022/02/06 11:23:21;;;;;;;19.30;10.57;;;;;;;1.67;100.00;100753.09;1716033;82;21435;-77
2022/02/06 11:25:50;;;;;;;15.30;11.18;;;;;;;1.69;100.00;100753.02;1758527;81;21859;-79
2022/02/06 11:28:19;;;;;;;21.00;12.25;;;;;;;1.70;100.00;100753.42;1732262;81;21068;-76
2022/02/06 11:30:48;;;;;;;17.32;11.43;;;;;;;1.72;100.00;100755.48;1743860;82;21034;-76
2022/02/06 11:33:15;;;;;;;18.32;11.63;;;;;;;1.77;100.00;100752.73;1718658;82;21117;-75
2022/02/06 11:35:53;;;;;;;17.52;10.98;;;;;;;1.82;100.00;100753.42;1718426;82;21109;-75
2022/02/06 11:44:36;;;;;;;16.00;10.65;;;;;;;1.83;100.00;100750.78;1747714;80;21088;-77
2022/02/06 11:47:30;;;;;;;14.83;9.73;;;;;;;1.84;100.00;100751.18;1764148;80;21069;-77
2022/02/06 11:50:07;;;;;;;17.67;11.38;;;;;;;1.87;100.00;100754.94;1752460;79;21073;-77
2022/02/06 11:52:57;;;;;;;17.35;10.48;;;;;;;1.88;100.00;100751.91;1727438;80;21081;-76
2022/02/06 11:55:39;;;;;;;15.60;10.18;;;;;;;1.87;100.00;100754.94;1765467;80;21077;-76
2022/02/06 11:58:34;;;;;;;15.78;10.35;;;;;;;1.89;100.00;100759.55;1757435;79;21152;-76
2022/02/06 12:01:16;;;;;;;17.00;11.15;;;;;;;1.89;100.00;100756.97;1764463;80;20990;-77
2022/02/06 12:04:00;;;;;;;18.35;10.88;;;;;;;1.91;100.00;100758.66;1719690;82;21028;-77
2022/02/06 12:06:50;;;;;;;13.88;9.43;;;;;;;1.91;100.00;100759.51;1711109;80;21082;-77
2022/02/06 12:09:31;;;;;;;14.35;9.50;;;;;;;1.92;100.00;100762.90;1730334;81;20991;-76
2022/02/06 12:12:08;;;;;;;13.10;9.70;;;;;;;1.92;100.00;100765.47;1720689;80;21096;-76
2022/02/06 12:14:44;;;;;;;14.70;9.75;;;;;;;1.88;100.00;100764.28;1749926;80;21096;-76
2022/02/06 12:17:23;;;;;;;12.58;10.00;;;;;;;1.85;100.00;100768.70;1722756;81;21012;-76
2022/02/06 12:20:08;;;;;;;15.98;9.95;;;;;;;1.83;100.00;100773.08;1712226;82;21192;-76
2022/02/06 12:22:46;;;;;;;14.28;10.28;;;;;;;1.81;100.00;100769.25;1720001;82;21365;-76
2022/02/06 12:25:32;;;;;;;13.72;9.98;;;;;;;1.81;100.00;100773.11;1793599;79;21049;-77
2022/02/06 12:28:21;;;;;;;15.32;10.05;;;;;;;1.81;100.00;100764.12;1762193;79;21034;-75
2022/02/06 12:30:57;;;;;;;16.42;11.10;;;;;;;1.85;100.00;100768.70;1730085;80;21064;-76
2022/02/06 12:33:44;;;;;;;13.60;9.73;;;;;;;1.85;100.00;100766.98;1747151;79;21151;-76
2022/02/06 12:38:52;;;;;;;15.10;10.20;;;;;;;1.86;100.00;100780.22;1794305;79;21857;-77
2022/02/06 12:41:26;;;;;;;17.00;11.08;;;;;;;1.85;100.00;100778.97;1758521;79;21049;-76
2022/02/06 12:44:01;;;;;;;16.32;10.40;;;;;;;1.84;100.00;100778.61;1725305;81;21012;-77
2022/02/06 12:46:26;;;;;;;15.58;10.35;;;;;;;1.84;100.00;100781.17;1740825;81;21077;-77
2022/02/06 12:49:03;;;;;;;14.78;10.65;;;;;;;1.83;100.00;100780.31;1744624;81;21067;-76
2022/02/06 12:51:35;;;;;;;15.03;11.10;;;;;;;1.83;100.00;100777.75;1716063;82;22040;-76
2022/02/06 12:54:05;;;;;;;18.37;10.93;;;;;;;1.83;100.00;100775.64;1728512;81;21065;-78
2022/02/06 12:56:35;;;;;;;14.05;10.53;;;;;;;1.83;100.00;100770.51;1700136;83;21085;-77
2022/02/06 12:59:04;;;;;;;12.43;10.13;;;;;;;1.82;100.00;100777.35;1699319;83;21210;-77
2022/02/06 13:01:40;;;;;;;14.13;9.88;;;;;;;1.82;100.00;100774.78;1728550;82;21704;-77
2022/02/06 13:04:10;;;;;;;16.27;11.00;;;;;;;1.80;100.00;100779.16;1740163;80;21174;-76
2022/02/06 13:06:43;;;;;;;17.57;11.68;;;;;;;1.80;100.00;100784.30;1741501;81;21065;-77
2022/02/06 13:09:25;;;;;;;16.57;11.45;;;;;;;1.80;100.00;100789.44;1725891;81;21058;-76
2022/02/06 13:12:48;;;;;;;16.23;11.28;;;;;;;1.79;100.00;100781.34;1723462;81;21286;-77
2022/02/06 13:30:53;;;;;;;16.12;11.48;;;;;;;2.03;100.00;100800.60;1764953;80;21042;-77
2022/02/06 13:39:02;;;;;;;20.00;12.05;;;;;;;1.85;100.00;100805.50;1732849;81;22360;-78
2022/02/06 13:41:32;;;;;;;16.05;12.15;;;;;;;1.81;100.00;100809.52;1726315;81;21081;-77
2022/02/06 13:44:00;;;;;;;17.75;12.68;;;;;;;1.76;100.00;100803.26;1739112;81;21083;-77
2022/02/06 13:46:35;;;;;;;22.17;12.50;;;;;;;1.74;100.00;100806.31;1706571;82;21597;-77
2022/02/06 13:49:07;;;;;;;16.60;12.68;;;;;;;1.72;100.00;100805.56;1736169;82;21076;-77
2022/02/06 13:51:45;;;;;;;29.15;13.35;;;;;;;1.68;100.00;100804.80;1729085;82;21205;-77
2022/02/06 13:54:11;;;;;;;21.27;12.47;;;;;;;1.67;100.00;100802.30;1680597;82;21039;-78
2022/02/06 13:56:38;;;;;;;17.10;12.23;;;;;;;1.65;100.00;100807.48;1753661;81;21009;-78
2022/02/06 13:59:13;;;;;;;21.05;12.95;;;;;;;1.64;100.00;100807.09;1747862;81;21649;-80
2022/02/06 14:01:47;;;;;;;18.85;12.75;;;;;;;1.62;100.00;100805.02;1737036;82;21045;-77
2022/02/06 14:04:34;;;;;;;19.55;12.25;;;;;;;1.64;100.00;100810.13;1705589;82;21912;-78
2022/02/06 14:07:18;;;;;;;18.90;11.90;;;;;;;1.64;100.00;100810.13;1708436;81;21019;-77
2022/02/06 14:12:25;;;;;;;19.30;11.83;;;;;;;1.60;100.00;100811.95;1677076;81;21712;-78
2022/02/06 14:14:57;;;;;;;16.45;11.45;;;;;;;1.56;100.00;100812.48;1722433;82;21599;-77
2022/02/06 14:17:29;;;;;;;16.35;12.00;;;;;;;1.56;100.00;100815.50;1731231;82;21141;-77
2022/02/06 14:19:59;;;;;;;;;;;;;;;1.55;100.00;100811.26;1733223;81;21053;-78
2022/02/06 14:22:36;;;;;;;17.00;11.85;;;;;;;1.53;100.00;100813.89;1731815;81;20140;-79
2022/02/06 14:25:12;;;;;;;19.15;11.57;;;;;;;1.53;100.00;100816.87;1673123;81;21052;-78